KLM892 EHAM-ENGM
Flight info
| Callsign | KLM892 |
|---|---|
| Flight time | 1h 26m |
| Altitude | 37000 |
| Route | ANDIK Z733 KONOM DCT AMADA DCT PIPEX M609 RIPAM |
| Aircraft | A21N/M-SDE2E3FGHIRWXY/LB1 |
Departure
| Time | 2026-04-30 11:54 |
|---|---|
| Airport | Amsterdam Airport Schiphol (EHAM) |
Arrival
| Time | 2026-04-30 13:20 |
|---|---|
| Airport | Oslo-Gardermoen International Airport (ENGM) |
| Time | Latitude | Longitude | Altitude | Speed | Heading |
|---|---|---|---|---|---|
| 2026-04-30 11:46 | 52.30882 | 4.77367 | 1 ft | 0 kts | 357° |
| 2026-04-30 11:48 | 52.30878 | 4.77367 | 1 ft | 2 kts | 357° |
| 2026-04-30 11:48 | 52.30861 | 4.77368 | 1 ft | 2 kts | 357° |
| 2026-04-30 11:48 | 52.30845 | 4.77370 | 1 ft | 2 kts | 357° |
| 2026-04-30 11:48 | 52.30828 | 4.77371 | 1 ft | 2 kts | 357° |
| 2026-04-30 11:49 | 52.30813 | 4.77366 | 1 ft | 2 kts | 45° |
| 2026-04-30 11:49 | 52.30809 | 4.77362 | 1 ft | 1 kts | 68° |
| 2026-04-30 11:49 | 52.30814 | 4.77381 | 1 ft | 2 kts | 68° |
| 2026-04-30 11:49 | 52.30823 | 4.77423 | 1 ft | 8 kts | 77° |
| 2026-04-30 11:50 | 52.30839 | 4.77561 | 1 ft | 15 kts | 53° |
| 2026-04-30 11:50 | 52.30968 | 4.77617 | 1 ft | 25 kts | 2° |
| 2026-04-30 11:50 | 52.31174 | 4.77636 | 1 ft | 34 kts | 4° |
| 2026-04-30 11:50 | 52.31422 | 4.77638 | 1 ft | 35 kts | 340° |
| 2026-04-30 11:51 | 52.31576 | 4.77332 | 0 ft | 38 kts | 270° |
| 2026-04-30 11:51 | 52.31560 | 4.76849 | 0 ft | 47 kts | 266° |
| 2026-04-30 11:51 | 52.31546 | 4.76429 | 1 ft | 35 kts | 266° |
| 2026-04-30 11:51 | 52.31533 | 4.76000 | 1 ft | 35 kts | 266° |
| 2026-04-30 11:52 | 52.31513 | 4.75553 | 1 ft | 44 kts | 268° |
| 2026-04-30 11:52 | 52.31499 | 4.75061 | 0 ft | 26 kts | 266° |
| 2026-04-30 11:52 | 52.31490 | 4.74766 | 1 ft | 19 kts | 276° |
| 2026-04-30 11:52 | 52.31586 | 4.74657 | 3 ft | 19 kts | 2° |
| 2026-04-30 11:53 | 52.31666 | 4.74759 | 3 ft | 12 kts | 79° |
| 2026-04-30 11:53 | 52.31684 | 4.75225 | -1 ft | 82 kts | 89° |
| 2026-04-30 11:53 | 52.31737 | 4.76619 | 35 ft | 159 kts | 88° |
| 2026-04-30 11:53 | 52.31806 | 4.78624 | 331 ft | 198 kts | 88° |
| 2026-04-30 11:54 | 52.31901 | 4.81020 | 907 ft | 218 kts | 86° |
| 2026-04-30 11:54 | 52.32039 | 4.83456 | 2064 ft | 215 kts | 87° |
| 2026-04-30 11:54 | 52.32182 | 4.85954 | 3056 ft | 224 kts | 89° |
| 2026-04-30 11:54 | 52.32349 | 4.88538 | 4025 ft | 233 kts | 85° |
| 2026-04-30 11:55 | 52.32906 | 4.91100 | 4807 ft | 249 kts | 66° |
| 2026-04-30 11:55 | 52.33862 | 4.93526 | 5249 ft | 259 kts | 60° |
| 2026-04-30 11:55 | 52.34932 | 4.95922 | 5357 ft | 260 kts | 59° |
| 2026-04-30 11:55 | 52.36009 | 4.98305 | 5373 ft | 261 kts | 59° |
| 2026-04-30 11:56 | 52.37081 | 5.00704 | 5489 ft | 262 kts | 60° |
| 2026-04-30 11:56 | 52.38140 | 5.03102 | 6263 ft | 264 kts | 59° |
| 2026-04-30 11:56 | 52.39211 | 5.05541 | 7386 ft | 263 kts | 59° |
| 2026-04-30 11:56 | 52.40279 | 5.07985 | 8488 ft | 264 kts | 59° |
| 2026-04-30 11:57 | 52.41367 | 5.10432 | 9514 ft | 269 kts | 56° |
| 2026-04-30 11:57 | 52.42725 | 5.12617 | 10499 ft | 279 kts | 41° |
| 2026-04-30 11:57 | 52.44518 | 5.14135 | 11062 ft | 306 kts | 25° |
| 2026-04-30 11:57 | 52.46645 | 5.15179 | 11452 ft | 332 kts | 19° |
| 2026-04-30 11:58 | 52.48961 | 5.16153 | 11848 ft | 354 kts | 18° |
| 2026-04-30 11:58 | 52.51387 | 5.17165 | 12512 ft | 365 kts | 18° |
| 2026-04-30 11:58 | 52.53866 | 5.18217 | 13352 ft | 370 kts | 18° |
| 2026-04-30 11:58 | 52.56371 | 5.19296 | 14224 ft | 374 kts | 18° |
| 2026-04-30 11:59 | 52.58896 | 5.20396 | 14978 ft | 378 kts | 19° |
| 2026-04-30 11:59 | 52.61454 | 5.21519 | 15702 ft | 383 kts | 19° |
| 2026-04-30 11:59 | 52.64044 | 5.22661 | 16440 ft | 387 kts | 19° |
| 2026-04-30 11:59 | 52.66667 | 5.23820 | 17156 ft | 392 kts | 19° |
| 2026-04-30 12:00 | 52.69308 | 5.24991 | 17879 ft | 395 kts | 19° |
| 2026-04-30 12:00 | 52.71979 | 5.26177 | 18603 ft | 399 kts | 19° |
| 2026-04-30 12:00 | 52.74702 | 5.27238 | 19231 ft | 405 kts | 15° |
| 2026-04-30 12:00 | 52.77489 | 5.28084 | 19845 ft | 409 kts | 13° |
| 2026-04-30 12:01 | 52.80319 | 5.28808 | 20459 ft | 413 kts | 12° |
| 2026-04-30 12:01 | 52.83134 | 5.29469 | 21057 ft | 416 kts | 11° |
| 2026-04-30 12:01 | 52.86010 | 5.30130 | 21650 ft | 419 kts | 11° |
| 2026-04-30 12:01 | 52.88906 | 5.30802 | 22236 ft | 422 kts | 11° |
| 2026-04-30 12:02 | 52.91821 | 5.31495 | 22808 ft | 425 kts | 11° |
| 2026-04-30 12:02 | 52.94764 | 5.32210 | 23402 ft | 428 kts | 11° |
| 2026-04-30 12:02 | 52.97720 | 5.32938 | 23982 ft | 431 kts | 11° |
| 2026-04-30 12:02 | 53.00698 | 5.33679 | 24443 ft | 434 kts | 11° |
| 2026-04-30 12:03 | 53.03698 | 5.34429 | 24912 ft | 437 kts | 11° |
| 2026-04-30 12:03 | 53.09754 | 5.35947 | 25795 ft | 443 kts | 11° |
| 2026-04-30 12:03 | 53.12816 | 5.36715 | 26226 ft | 445 kts | 11° |
| 2026-04-30 12:04 | 53.15892 | 5.37489 | 26620 ft | 449 kts | 11° |
| 2026-04-30 12:04 | 53.18954 | 5.38259 | 27013 ft | 451 kts | 11° |
| 2026-04-30 12:04 | 53.22110 | 5.39054 | 27435 ft | 454 kts | 11° |
| 2026-04-30 12:04 | 53.25197 | 5.39831 | 27820 ft | 456 kts | 11° |
| 2026-04-30 12:05 | 53.28352 | 5.40627 | 28218 ft | 459 kts | 10° |
| 2026-04-30 12:05 | 53.31520 | 5.41427 | 28635 ft | 460 kts | 10° |
| 2026-04-30 12:05 | 53.34673 | 5.42224 | 29204 ft | 458 kts | 10° |
| 2026-04-30 12:05 | 53.37823 | 5.43022 | 29750 ft | 456 kts | 10° |
| 2026-04-30 12:06 | 53.40960 | 5.43818 | 30260 ft | 454 kts | 10° |
| 2026-04-30 12:06 | 53.44052 | 5.44604 | 30724 ft | 453 kts | 10° |
| 2026-04-30 12:06 | 53.47204 | 5.45407 | 31146 ft | 452 kts | 10° |
| 2026-04-30 12:06 | 53.50304 | 5.46198 | 31542 ft | 450 kts | 10° |
| 2026-04-30 12:07 | 53.53364 | 5.46980 | 31947 ft | 449 kts | 10° |
| 2026-04-30 12:07 | 53.56453 | 5.47770 | 32327 ft | 448 kts | 10° |
| 2026-04-30 12:07 | 53.59529 | 5.48559 | 32710 ft | 447 kts | 10° |
| 2026-04-30 12:07 | 53.62578 | 5.49510 | 33069 ft | 444 kts | 16° |
| 2026-04-30 12:08 | 53.65531 | 5.50993 | 33503 ft | 441 kts | 19° |
| 2026-04-30 12:08 | 53.68437 | 5.52622 | 33882 ft | 439 kts | 20° |
| 2026-04-30 12:08 | 53.71318 | 5.54318 | 34219 ft | 438 kts | 21° |
| 2026-04-30 12:08 | 53.73217 | 5.55463 | 34458 ft | 437 kts | 21° |
| 2026-04-30 12:09 | 53.76084 | 5.57214 | 34730 ft | 437 kts | 21° |
| 2026-04-30 12:09 | 53.79865 | 5.59537 | 35081 ft | 436 kts | 21° |
| 2026-04-30 12:09 | 53.82715 | 5.61288 | 35320 ft | 436 kts | 21° |
| 2026-04-30 12:09 | 53.85560 | 5.63033 | 35589 ft | 435 kts | 21° |
| 2026-04-30 12:10 | 53.87484 | 5.64212 | 35759 ft | 434 kts | 21° |
| 2026-04-30 12:10 | 53.90320 | 5.65949 | 36046 ft | 432 kts | 21° |
| 2026-04-30 12:10 | 53.93106 | 5.67655 | 36303 ft | 432 kts | 21° |
| 2026-04-30 12:10 | 53.95935 | 5.69390 | 36483 ft | 432 kts | 21° |
| 2026-04-30 12:11 | 53.98769 | 5.71129 | 36706 ft | 432 kts | 21° |
| 2026-04-30 12:11 | 54.01592 | 5.72864 | 36879 ft | 433 kts | 21° |
| 2026-04-30 12:11 | 54.04428 | 5.74610 | 37111 ft | 432 kts | 21° |
| 2026-04-30 12:11 | 54.07257 | 5.76354 | 37291 ft | 432 kts | 21° |
| 2026-04-30 12:12 | 54.10088 | 5.78102 | 37441 ft | 433 kts | 21° |
| 2026-04-30 12:12 | 54.15749 | 5.81607 | 37481 ft | 432 kts | 21° |
| 2026-04-30 12:13 | 54.21402 | 5.85116 | 37488 ft | 432 kts | 21° |
| 2026-04-30 12:13 | 54.27044 | 5.88628 | 37481 ft | 431 kts | 20° |
| 2026-04-30 12:14 | 54.32647 | 5.92126 | 37483 ft | 431 kts | 20° |
| 2026-04-30 12:14 | 54.38284 | 5.95656 | 37489 ft | 432 kts | 20° |
| 2026-04-30 12:15 | 54.43940 | 5.99208 | 37494 ft | 432 kts | 20° |
| 2026-04-30 12:15 | 54.49594 | 6.02768 | 37488 ft | 432 kts | 20° |
| 2026-04-30 12:16 | 54.55250 | 6.06341 | 37485 ft | 432 kts | 20° |
| 2026-04-30 12:16 | 54.60896 | 6.09919 | 37492 ft | 432 kts | 20° |
| 2026-04-30 12:17 | 54.69382 | 6.15315 | 37493 ft | 433 kts | 20° |
| 2026-04-30 12:17 | 54.75005 | 6.18904 | 37494 ft | 433 kts | 20° |
| 2026-04-30 12:18 | 54.80667 | 6.22529 | 37505 ft | 433 kts | 20° |
| 2026-04-30 12:18 | 54.86334 | 6.26168 | 37494 ft | 433 kts | 20° |
| 2026-04-30 12:19 | 54.92001 | 6.29818 | 37491 ft | 434 kts | 20° |
| 2026-04-30 12:19 | 54.97666 | 6.33477 | 37504 ft | 434 kts | 20° |
| 2026-04-30 12:20 | 55.03311 | 6.37090 | 37496 ft | 434 kts | 19° |
| 2026-04-30 12:20 | 55.09003 | 6.40668 | 37503 ft | 434 kts | 19° |
| 2026-04-30 12:21 | 55.14694 | 6.44246 | 37510 ft | 435 kts | 19° |
| 2026-04-30 12:21 | 55.20399 | 6.47849 | 37500 ft | 436 kts | 19° |
| 2026-04-30 12:22 | 55.26102 | 6.51468 | 37510 ft | 436 kts | 19° |
| 2026-04-30 12:22 | 55.31805 | 6.55100 | 37511 ft | 436 kts | 19° |
| 2026-04-30 12:23 | 55.37510 | 6.58745 | 37501 ft | 437 kts | 19° |
| 2026-04-30 12:23 | 55.43229 | 6.62409 | 37498 ft | 437 kts | 19° |
| 2026-04-30 12:24 | 55.48915 | 6.66063 | 37511 ft | 437 kts | 19° |
| 2026-04-30 12:24 | 55.54635 | 6.69751 | 37519 ft | 437 kts | 19° |
| 2026-04-30 12:25 | 55.60339 | 6.73439 | 37517 ft | 436 kts | 19° |
| 2026-04-30 12:25 | 55.66039 | 6.77137 | 37517 ft | 436 kts | 19° |
| 2026-04-30 12:26 | 55.71739 | 6.80846 | 37513 ft | 436 kts | 19° |
| 2026-04-30 12:26 | 55.77437 | 6.84565 | 37510 ft | 436 kts | 19° |
| 2026-04-30 12:27 | 55.83133 | 6.88294 | 37514 ft | 436 kts | 19° |
| 2026-04-30 12:27 | 55.88835 | 6.92039 | 37509 ft | 436 kts | 19° |
| 2026-04-30 12:28 | 55.94494 | 6.95768 | 37505 ft | 436 kts | 19° |
| 2026-04-30 12:28 | 56.00192 | 6.99534 | 37510 ft | 436 kts | 19° |
| 2026-04-30 12:29 | 56.05885 | 7.03309 | 37519 ft | 436 kts | 19° |
| 2026-04-30 12:29 | 56.11581 | 7.07097 | 37517 ft | 436 kts | 19° |
| 2026-04-30 12:30 | 56.17277 | 7.10898 | 37517 ft | 436 kts | 19° |
| 2026-04-30 12:30 | 56.22945 | 7.14692 | 37524 ft | 436 kts | 19° |
| 2026-04-30 12:31 | 56.28633 | 7.18511 | 37512 ft | 436 kts | 19° |
| 2026-04-30 12:31 | 56.34330 | 7.22349 | 37517 ft | 436 kts | 19° |
| 2026-04-30 12:32 | 56.40022 | 7.26196 | 37521 ft | 436 kts | 19° |
| 2026-04-30 12:32 | 56.45676 | 7.30029 | 37514 ft | 436 kts | 19° |
| 2026-04-30 12:33 | 56.51359 | 7.33894 | 37520 ft | 436 kts | 19° |
| 2026-04-30 12:33 | 56.57042 | 7.37771 | 37508 ft | 436 kts | 19° |
| 2026-04-30 12:34 | 56.62717 | 7.41655 | 37517 ft | 436 kts | 19° |
| 2026-04-30 12:34 | 56.68399 | 7.45558 | 37510 ft | 436 kts | 19° |
| 2026-04-30 12:35 | 56.74082 | 7.49472 | 37513 ft | 436 kts | 19° |
| 2026-04-30 12:35 | 56.79758 | 7.53396 | 37505 ft | 436 kts | 19° |
| 2026-04-30 12:36 | 56.85431 | 7.57329 | 37508 ft | 436 kts | 19° |
| 2026-04-30 12:36 | 56.91066 | 7.61249 | 37506 ft | 436 kts | 19° |
| 2026-04-30 12:37 | 56.96741 | 7.65210 | 37498 ft | 436 kts | 19° |
| 2026-04-30 12:37 | 57.02402 | 7.69175 | 37501 ft | 435 kts | 19° |
| 2026-04-30 12:38 | 57.08059 | 7.73149 | 37498 ft | 434 kts | 19° |
| 2026-04-30 12:38 | 57.13674 | 7.77106 | 37496 ft | 435 kts | 19° |
| 2026-04-30 12:39 | 57.19315 | 7.81095 | 37494 ft | 434 kts | 19° |
| 2026-04-30 12:39 | 57.24944 | 7.85088 | 37488 ft | 434 kts | 19° |
| 2026-04-30 12:40 | 57.30581 | 7.89100 | 37486 ft | 434 kts | 19° |
| 2026-04-30 12:40 | 57.36211 | 7.93120 | 37476 ft | 434 kts | 19° |
| 2026-04-30 12:41 | 57.41839 | 7.97153 | 37482 ft | 433 kts | 19° |
| 2026-04-30 12:41 | 57.47450 | 8.01187 | 37467 ft | 432 kts | 19° |
| 2026-04-30 12:42 | 57.53065 | 8.05237 | 37465 ft | 432 kts | 19° |
| 2026-04-30 12:42 | 57.58644 | 8.09272 | 37461 ft | 432 kts | 20° |
| 2026-04-30 12:43 | 57.64242 | 8.13337 | 37457 ft | 432 kts | 19° |
| 2026-04-30 12:43 | 57.69841 | 8.17413 | 37449 ft | 432 kts | 20° |
| 2026-04-30 12:44 | 57.75445 | 8.21509 | 37449 ft | 432 kts | 19° |
| 2026-04-30 12:44 | 57.81038 | 8.25610 | 37436 ft | 432 kts | 19° |
| 2026-04-30 12:45 | 57.86633 | 8.29728 | 37438 ft | 432 kts | 19° |
| 2026-04-30 12:45 | 57.92221 | 8.33852 | 37422 ft | 432 kts | 18° |
| 2026-04-30 12:46 | 57.97827 | 8.38000 | 37415 ft | 434 kts | 20° |
| 2026-04-30 12:46 | 58.03417 | 8.42156 | 37407 ft | 434 kts | 20° |
| 2026-04-30 12:47 | 58.09040 | 8.46350 | 37403 ft | 434 kts | 20° |
| 2026-04-30 12:47 | 58.14665 | 8.50560 | 37403 ft | 434 kts | 20° |
| 2026-04-30 12:48 | 58.20294 | 8.54785 | 37401 ft | 434 kts | 20° |
| 2026-04-30 12:48 | 58.25881 | 8.58994 | 37398 ft | 435 kts | 20° |
| 2026-04-30 12:49 | 58.31504 | 8.63244 | 37387 ft | 435 kts | 20° |
| 2026-04-30 12:49 | 58.37135 | 8.67516 | 37387 ft | 435 kts | 20° |
| 2026-04-30 12:50 | 58.42752 | 8.71790 | 37384 ft | 435 kts | 20° |
| 2026-04-30 12:50 | 58.48373 | 8.76083 | 37403 ft | 434 kts | 20° |
| 2026-04-30 12:51 | 58.53976 | 8.80378 | 37389 ft | 434 kts | 20° |
| 2026-04-30 12:51 | 58.59540 | 8.84657 | 37389 ft | 433 kts | 20° |
| 2026-04-30 12:52 | 58.65138 | 8.88976 | 37387 ft | 433 kts | 20° |
| 2026-04-30 12:52 | 58.70733 | 8.93309 | 37386 ft | 433 kts | 20° |
| 2026-04-30 12:53 | 58.73535 | 8.95485 | 37239 ft | 431 kts | 20° |
| 2026-04-30 12:53 | 58.76304 | 8.97640 | 36612 ft | 429 kts | 20° |
| 2026-04-30 12:53 | 58.79066 | 8.99792 | 35947 ft | 427 kts | 20° |
| 2026-04-30 12:53 | 58.81794 | 9.01921 | 35520 ft | 428 kts | 20° |
| 2026-04-30 12:54 | 58.84484 | 9.04474 | 35383 ft | 434 kts | 30° |
| 2026-04-30 12:54 | 58.86980 | 9.07801 | 35374 ft | 437 kts | 34° |
| 2026-04-30 12:54 | 58.91815 | 9.14917 | 34757 ft | 435 kts | 36° |
| 2026-04-30 12:55 | 58.94176 | 9.18560 | 34081 ft | 433 kts | 36° |
| 2026-04-30 12:55 | 58.96521 | 9.22216 | 33276 ft | 432 kts | 36° |
| 2026-04-30 12:55 | 58.98867 | 9.25883 | 32437 ft | 433 kts | 36° |
| 2026-04-30 12:55 | 59.01226 | 9.29565 | 31526 ft | 436 kts | 36° |
| 2026-04-30 12:56 | 59.03600 | 9.33263 | 30824 ft | 440 kts | 36° |
| 2026-04-30 12:56 | 59.05971 | 9.36953 | 30005 ft | 443 kts | 36° |
| 2026-04-30 12:56 | 59.08396 | 9.40729 | 29372 ft | 436 kts | 36° |
| 2026-04-30 12:56 | 59.10704 | 9.44335 | 29051 ft | 423 kts | 36° |
| 2026-04-30 12:57 | 59.12967 | 9.47876 | 28771 ft | 410 kts | 36° |
| 2026-04-30 12:57 | 59.15156 | 9.51308 | 28510 ft | 398 kts | 36° |
| 2026-04-30 12:57 | 59.17282 | 9.54642 | 28252 ft | 386 kts | 36° |
| 2026-04-30 12:57 | 59.19413 | 9.57686 | 27970 ft | 375 kts | 31° |
| 2026-04-30 12:58 | 59.20841 | 9.59567 | 27692 ft | 371 kts | 31° |
| 2026-04-30 12:58 | 59.22979 | 9.62343 | 27221 ft | 367 kts | 31° |
| 2026-04-30 12:58 | 59.25097 | 9.65076 | 26717 ft | 364 kts | 30° |
| 2026-04-30 12:58 | 59.27209 | 9.67798 | 26183 ft | 363 kts | 30° |
| 2026-04-30 12:59 | 59.29306 | 9.70502 | 25754 ft | 359 kts | 30° |
| 2026-04-30 12:59 | 59.31377 | 9.73158 | 25425 ft | 353 kts | 28° |
| 2026-04-30 12:59 | 59.33568 | 9.75282 | 25377 ft | 350 kts | 17° |
| 2026-04-30 12:59 | 59.35882 | 9.76753 | 25253 ft | 348 kts | 14° |
| 2026-04-30 13:00 | 59.38176 | 9.78039 | 24775 ft | 346 kts | 13° |
| 2026-04-30 13:00 | 59.40521 | 9.79322 | 24304 ft | 345 kts | 13° |
| 2026-04-30 13:00 | 59.42797 | 9.80571 | 23850 ft | 343 kts | 13° |
| 2026-04-30 13:00 | 59.45092 | 9.81838 | 23299 ft | 341 kts | 13° |
| 2026-04-30 13:01 | 59.47365 | 9.83100 | 22763 ft | 339 kts | 13° |
| 2026-04-30 13:01 | 59.49623 | 9.84357 | 22253 ft | 336 kts | 13° |
| 2026-04-30 13:01 | 59.51867 | 9.85609 | 21780 ft | 334 kts | 13° |
| 2026-04-30 13:01 | 59.54099 | 9.86858 | 21285 ft | 332 kts | 13° |
| 2026-04-30 13:02 | 59.56314 | 9.88099 | 20805 ft | 330 kts | 13° |
| 2026-04-30 13:02 | 59.58514 | 9.89334 | 20324 ft | 327 kts | 13° |
| 2026-04-30 13:02 | 59.60696 | 9.90560 | 19861 ft | 325 kts | 13° |
| 2026-04-30 13:02 | 59.62867 | 9.91782 | 19373 ft | 323 kts | 13° |
| 2026-04-30 13:03 | 59.64995 | 9.92980 | 18926 ft | 321 kts | 13° |
| 2026-04-30 13:03 | 59.67139 | 9.94181 | 18429 ft | 319 kts | 13° |
| 2026-04-30 13:03 | 59.69272 | 9.95372 | 17901 ft | 317 kts | 13° |
| 2026-04-30 13:03 | 59.71395 | 9.96559 | 17412 ft | 315 kts | 14° |
| 2026-04-30 13:04 | 59.73498 | 9.97735 | 16914 ft | 313 kts | 14° |
| 2026-04-30 13:04 | 59.75589 | 9.98907 | 16487 ft | 311 kts | 14° |
| 2026-04-30 13:04 | 59.77666 | 10.00073 | 16349 ft | 310 kts | 14° |
| 2026-04-30 13:04 | 59.79744 | 10.01241 | 16106 ft | 309 kts | 13° |
| 2026-04-30 13:05 | 59.81821 | 10.02408 | 15599 ft | 309 kts | 13° |
| 2026-04-30 13:05 | 59.83887 | 10.03572 | 15373 ft | 308 kts | 13° |
| 2026-04-30 13:05 | 59.85927 | 10.04721 | 15337 ft | 309 kts | 13° |
| 2026-04-30 13:06 | 59.90055 | 10.07052 | 14940 ft | 307 kts | 14° |
| 2026-04-30 13:06 | 59.92103 | 10.08211 | 14469 ft | 305 kts | 14° |
| 2026-04-30 13:06 | 59.94140 | 10.09369 | 14011 ft | 304 kts | 14° |
| 2026-04-30 13:06 | 59.96168 | 10.10531 | 13516 ft | 302 kts | 14° |
| 2026-04-30 13:07 | 59.98175 | 10.11683 | 13032 ft | 300 kts | 14° |
| 2026-04-30 13:07 | 60.00172 | 10.12831 | 12583 ft | 297 kts | 13° |
| 2026-04-30 13:07 | 60.02153 | 10.13972 | 12354 ft | 295 kts | 13° |
| 2026-04-30 13:07 | 60.04129 | 10.15110 | 12084 ft | 294 kts | 13° |
| 2026-04-30 13:08 | 60.06094 | 10.16243 | 11613 ft | 293 kts | 13° |
| 2026-04-30 13:08 | 60.08041 | 10.17366 | 11172 ft | 291 kts | 13° |
| 2026-04-30 13:08 | 60.09984 | 10.18489 | 10751 ft | 289 kts | 13° |
| 2026-04-30 13:08 | 60.11917 | 10.19609 | 10322 ft | 288 kts | 13° |
| 2026-04-30 13:09 | 60.13837 | 10.20722 | 9863 ft | 286 kts | 12° |
| 2026-04-30 13:09 | 60.15701 | 10.22053 | 9429 ft | 285 kts | 22° |
| 2026-04-30 13:09 | 60.17329 | 10.24261 | 8924 ft | 289 kts | 40° |
| 2026-04-30 13:09 | 60.18662 | 10.27318 | 8421 ft | 292 kts | 49° |
| 2026-04-30 13:10 | 60.19885 | 10.30635 | 7965 ft | 291 kts | 51° |
| 2026-04-30 13:10 | 60.21008 | 10.33956 | 7498 ft | 291 kts | 57° |
| 2026-04-30 13:10 | 60.21951 | 10.37556 | 7067 ft | 290 kts | 60° |
| 2026-04-30 13:10 | 60.22834 | 10.41201 | 6667 ft | 289 kts | 61° |
| 2026-04-30 13:11 | 60.23689 | 10.44843 | 6210 ft | 287 kts | 62° |
| 2026-04-30 13:11 | 60.24533 | 10.48479 | 5787 ft | 284 kts | 62° |
| 2026-04-30 13:11 | 60.25362 | 10.52073 | 5369 ft | 282 kts | 63° |
| 2026-04-30 13:11 | 60.26179 | 10.55644 | 4937 ft | 280 kts | 63° |
| 2026-04-30 13:12 | 60.26982 | 10.59194 | 4520 ft | 277 kts | 64° |
| 2026-04-30 13:12 | 60.27780 | 10.62717 | 4077 ft | 275 kts | 64° |
| 2026-04-30 13:12 | 60.28572 | 10.66205 | 3598 ft | 274 kts | 64° |
| 2026-04-30 13:13 | 60.30132 | 10.73097 | 2976 ft | 268 kts | 66° |
| 2026-04-30 13:13 | 60.30896 | 10.76496 | 2964 ft | 264 kts | 66° |
| 2026-04-30 13:13 | 60.32346 | 10.82943 | 2936 ft | 227 kts | 66° |
| 2026-04-30 13:14 | 60.32973 | 10.85752 | 3027 ft | 216 kts | 67° |
| 2026-04-30 13:14 | 60.33589 | 10.88511 | 2993 ft | 215 kts | 65° |
| 2026-04-30 13:14 | 60.34829 | 10.94057 | 2950 ft | 216 kts | 67° |
| 2026-04-30 13:15 | 60.35447 | 10.96833 | 2979 ft | 217 kts | 67° |
| 2026-04-30 13:15 | 60.36670 | 11.02333 | 2970 ft | 217 kts | 66° |
| 2026-04-30 13:15 | 60.37288 | 11.05110 | 2970 ft | 217 kts | 66° |
| 2026-04-30 13:16 | 60.37911 | 11.07915 | 2954 ft | 217 kts | 66° |
| 2026-04-30 13:16 | 60.38498 | 11.10729 | 2955 ft | 216 kts | 73° |
| 2026-04-30 13:16 | 60.38613 | 11.13702 | 2969 ft | 213 kts | 103° |
| 2026-04-30 13:17 | 60.36638 | 11.17408 | 2968 ft | 202 kts | 175° |
| 2026-04-30 13:17 | 60.35259 | 11.17121 | 2965 ft | 196 kts | 196° |
| 2026-04-30 13:17 | 60.32923 | 11.15694 | 2971 ft | 168 kts | 198° |
| 2026-04-30 13:18 | 60.31775 | 11.15043 | 2799 ft | 172 kts | 197° |
| 2026-04-30 13:18 | 60.29464 | 11.13711 | 2322 ft | 172 kts | 197° |
| 2026-04-30 13:18 | 60.28307 | 11.13070 | 2038 ft | 171 kts | 199° |
| 2026-04-30 13:19 | 60.27187 | 11.12392 | 1820 ft | 166 kts | 197° |
| 2026-04-30 13:19 | 60.26095 | 11.11758 | 1610 ft | 165 kts | 198° |
| 2026-04-30 13:19 | 60.24990 | 11.11118 | 1392 ft | 166 kts | 197° |
| 2026-04-30 13:19 | 60.23873 | 11.10473 | 1177 ft | 168 kts | 195° |
| 2026-04-30 13:20 | 60.22750 | 11.09825 | 956 ft | 168 kts | 196° |
| 2026-04-30 13:20 | 60.21636 | 11.09165 | 732 ft | 166 kts | 194° |
| 2026-04-30 13:20 | 60.20597 | 11.08576 | 680 ft | 131 kts | 196° |
| 2026-04-30 13:20 | 60.20053 | 11.08296 | 679 ft | 33 kts | 182° |
| 2026-04-30 13:21 | 60.19894 | 11.08457 | 679 ft | 11 kts | 109° |
| 2026-04-30 13:21 | 60.19892 | 11.08467 | 680 ft | 0 kts | 109° |
| 2026-04-30 13:21 | 60.19892 | 11.08469 | 678 ft | 2 kts | 109° |
| 2026-04-30 13:22 | 60.19846 | 11.08765 | 681 ft | 13 kts | 107° |
| 2026-04-30 13:22 | 60.19819 | 11.08948 | 679 ft | 14 kts | 107° |
| 2026-04-30 13:22 | 60.19718 | 11.09149 | 680 ft | 10 kts | 112° |
| 2026-04-30 13:23 | 60.19695 | 11.09279 | 679 ft | 10 kts | 112° |
| 2026-04-30 13:23 | 60.19607 | 11.09368 | 682 ft | 2 kts | 195° |
| 2026-04-30 13:24 | 60.19606 | 11.09367 | 682 ft | 0 kts | 195° |